Time;durP1;ratioP1;P1;durP2;ratioP2;P2;SDS_P1;SDS_P2;PMS_P1;PMS_P2;Temp;Humidity;BMP_temperature;BMP_pressure;BME280_temperature;BME280_humidity;BME280_pressure;Samples;Min_cycle;Max_cycle;Signal;HPM_P1;HPM_P2
2022/08/08 00:02:32;;;;;;;15.25;4.25;;;;;;;26.10;48.71;100450.91;4939011;29;20035;-91
2022/08/08 00:05:22;;;;;;;17.15;3.47;;;;;;;26.07;48.26;100456.88;5031579;28;20056;-94
2022/08/08 00:08:00;;;;;;;9.63;3.78;;;;;;;26.04;48.16;100460.09;5038474;28;20515;-93
2022/08/08 00:10:34;;;;;;;7.15;3.63;;;;;;;25.94;48.12;100455.97;5020801;28;20030;-91
2022/08/08 00:13:12;;;;;;;16.52;4.45;;;;;;;25.89;47.86;100455.81;5038011;28;20087;-95
2022/08/08 00:15:45;;;;;;;20.92;4.18;;;;;;;25.89;48.07;100455.81;5038055;28;20025;-91
2022/08/08 00:18:23;;;;;;;;;;;;;;;25.97;48.34;100472.03;5040389;28;20060;-91
2022/08/08 00:20:51;;;;;;;13.57;4.75;;;;;;;25.83;48.58;100461.38;5039810;28;19944;-92
2022/08/08 00:23:34;;;;;;;18.10;4.47;;;;;;;25.86;48.63;100464.53;5038896;28;20056;-93
2022/08/08 00:26:02;;;;;;;35.30;5.88;;;;;;;25.87;49.00;100465.38;5038361;28;20068;-91
2022/08/08 00:28:41;;;;;;;24.25;5.30;;;;;;;25.89;49.17;100475.09;5023828;28;20446;-93
2022/08/08 00:31:33;;;;;;;10.43;5.13;;;;;;;25.86;49.43;100464.53;5039540;28;20134;-93
2022/08/08 00:37:29;;;;;;;9.23;5.13;;;;;;;25.74;50.33;100466.38;5039285;28;20086;-93
2022/08/08 00:40:23;;;;;;;15.38;6.28;;;;;;;25.75;50.86;100470.78;5039059;28;20041;-93
2022/08/08 00:43:36;;;;;;;16.90;5.25;;;;;;;25.72;51.28;100470.38;5038359;28;20486;-92
2022/08/08 00:46:33;;;;;;;12.48;5.70;;;;;;;25.63;51.84;100469.00;5039483;28;20025;-92
2022/08/08 00:49:43;;;;;;;14.18;6.20;;;;;;;25.57;52.26;100475.41;5039239;28;20047;-94
2022/08/08 00:52:26;;;;;;;11.60;6.57;;;;;;;25.53;52.99;100468.69;4941117;29;20597;-92
2022/08/08 00:55:24;;;;;;;16.10;6.18;;;;;;;25.52;53.45;100489.03;4924367;29;20103;-92
2022/08/08 00:58:27;;;;;;;20.75;7.40;;;;;;;25.47;53.96;100473.16;4985844;28;20056;-92
2022/08/08 01:01:20;;;;;;;17.80;7.07;;;;;;;25.40;54.67;100469.63;5039108;28;20113;-92
2022/08/08 01:04:05;;;;;;;13.07;7.40;;;;;;;25.32;55.10;100467.13;5038079;28;20029;-92
2022/08/08 01:07:10;;;;;;;38.17;8.93;;;;;;;25.38;55.67;100477.28;5038292;28;20086;-92
2022/08/08 01:09:41;;;;;;;16.52;7.53;;;;;;;25.36;55.77;100462.84;5038614;28;20037;-92
2022/08/08 01:12:16;;;;;;;11.13;7.68;;;;;;;25.27;56.59;100470.56;5038375;28;20026;-92
2022/08/08 01:15:06;;;;;;;25.65;7.65;;;;;;;25.28;56.86;100461.25;5037958;28;20029;-92
2022/08/08 01:17:40;;;;;;;15.98;7.85;;;;;;;25.23;57.20;100466.56;5037361;28;20057;-93
2022/08/08 01:20:34;;;;;;;19.85;7.50;;;;;;;25.24;57.54;100472.91;5037571;28;20037;-92
2022/08/08 01:23:49;;;;;;;22.10;8.18;;;;;;;25.15;57.80;100466.00;5020201;28;20025;-93
2022/08/08 01:26:43;;;;;;;19.15;8.88;;;;;;;25.13;58.53;100473.66;5037976;28;20127;-92
2022/08/08 01:29:39;;;;;;;15.45;8.73;;;;;;;25.13;58.90;100476.41;5038246;28;20561;-92
2022/08/08 01:32:42;;;;;;;10.32;7.32;;;;;;;25.11;59.07;100467.50;5038017;28;20025;-92
2022/08/08 01:35:13;;;;;;;19.75;7.18;;;;;;;25.08;59.21;100471.56;5037158;28;20025;-94
2022/08/08 01:37:57;;;;;;;24.38;7.30;;;;;;;25.10;59.52;100474.09;5037381;28;20033;-96
2022/08/08 01:40:33;;;;;;;21.60;9.18;;;;;;;25.09;59.77;100473.25;5036654;28;20454;-94
2022/08/08 01:43:20;;;;;;;15.55;7.97;;;;;;;25.04;59.92;100469.47;5037661;28;20042;-92
2022/08/08 01:46:01;;;;;;;20.92;9.27;;;;;;;25.01;60.25;100476.28;5038721;28;20028;-93
2022/08/08 01:48:51;;;;;;;12.23;8.15;;;;;;;24.96;60.20;100466.97;5038336;28;20025;-92
2022/08/08 01:51:53;;;;;;;23.80;9.18;;;;;;;24.98;60.46;100476.72;5037648;28;20036;-94
2022/08/08 01:54:30;;;;;;;18.45;9.05;;;;;;;24.96;60.67;100481.59;5038835;28;20025;-90
2022/08/08 01:57:05;;;;;;;13.88;8.77;;;;;;;24.95;61.16;100481.81;5037797;28;20025;-93
2022/08/08 01:59:52;;;;;;;13.85;9.05;;;;;;;24.92;61.36;100486.69;5036988;28;20025;-93
2022/08/08 02:03:06;;;;;;;19.17;9.90;;;;;;;24.81;61.62;100476.41;5037531;28;20021;-94
2022/08/08 02:06:05;;;;;;;19.65;9.40;;;;;;;24.87;61.74;100491.16;5037232;28;20501;-94
2022/08/08 02:09:09;;;;;;;25.33;10.85;;;;;;;24.84;62.27;100492.47;5037264;28;20079;-94
2022/08/08 02:11:42;;;;;;;17.95;8.82;;;;;;;24.89;61.87;100489.88;4976812;28;20042;-93
2022/08/08 02:14:20;;;;;;;22.70;9.60;;;;;;;24.86;62.14;100484.81;5012922;28;20034;-92
2022/08/08 02:16:54;;;;;;;14.60;8.70;;;;;;;24.78;62.64;100490.56;5036556;28;20029;-93
2022/08/08 02:19:31;;;;;;;13.63;8.77;;;;;;;24.75;62.75;100496.50;5018779;28;20026;-92
2022/08/08 02:22:30;;;;;;;19.52;8.95;;;;;;;24.78;62.76;100493.31;5036769;28;20029;-93
2022/08/08 02:25:06;;;;;;;21.45;9.57;;;;;;;24.72;62.86;100499.69;5036498;28;20038;-94
2022/08/08 02:27:43;;;;;;;17.63;8.60;;;;;;;24.70;63.08;100496.34;5036026;28;20518;-93
2022/08/08 02:30:19;;;;;;;19.83;8.57;;;;;;;24.67;63.36;100498.69;5036118;28;20029;-93
2022/08/08 02:33:13;;;;;;;30.70;9.30;;;;;;;24.68;63.37;100498.44;5036286;28;20052;-92
2022/08/08 02:36:12;;;;;;;18.35;9.00;;;;;;;24.64;63.50;100497.22;5036671;28;20120;-94
2022/08/08 02:38:59;;;;;;;13.15;9.27;;;;;;;24.60;63.65;100498.69;5036482;28;20483;-92
2022/08/08 02:41:33;;;;;;;11.73;8.50;;;;;;;24.52;64.04;100503.63;5036020;28;20022;-93
2022/08/08 02:44:11;;;;;;;17.80;8.70;;;;;;;24.56;63.96;100497.44;5035845;28;20017;-91
2022/08/08 02:47:01;;;;;;;15.10;7.75;;;;;;;24.56;64.03;100494.69;5035923;28;20483;-92
2022/08/08 02:49:54;;;;;;;15.68;7.80;;;;;;;24.47;64.26;100492.41;5018640;28;20389;-92
2022/08/08 02:53:12;;;;;;;13.23;8.90;;;;;;;24.47;64.28;100492.41;5036038;28;20083;-93
2022/08/08 02:55:40;;;;;;;14.30;7.82;;;;;;;24.43;64.37;100503.03;4967040;28;20130;-90
2022/08/08 02:58:27;;;;;;;22.70;9.10;;;;;;;24.38;64.90;100500.06;5038701;28;20088;-91
2022/08/08 03:01:08;;;;;;;19.67;8.68;;;;;;;24.34;64.84;100502.41;5040615;28;20108;-95
2022/08/08 03:04:01;;;;;;;19.55;9.48;;;;;;;24.31;65.27;100497.34;5039517;28;20028;-93
2022/08/08 03:06:53;;;;;;;16.45;7.25;;;;;;;24.24;65.26;100503.94;5038836;28;20561;-93
2022/08/08 03:09:31;;;;;;;19.20;7.47;;;;;;;24.24;65.29;100517.69;5039675;28;20499;-95
2022/08/08 03:12:30;;;;;;;15.63;8.50;;;;;;;24.18;65.72;100513.03;5040446;28;20079;-92
2022/08/08 03:15:25;;;;;;;16.92;8.57;;;;;;;24.17;65.41;100517.69;5041026;28;20097;-94
2022/08/08 03:18:06;;;;;;;19.88;8.52;;;;;;;24.15;65.71;100513.47;5039551;28;20073;-93
2022/08/08 03:20:44;;;;;;;17.20;7.97;;;;;;;24.15;65.80;100518.97;5020393;28;20064;-91
2022/08/08 03:23:10;;;;;;;19.48;7.25;;;;;;;24.11;65.83;100517.69;5040107;28;20026;-93
2022/08/08 03:25:36;;;;;;;14.63;8.45;;;;;;;24.09;65.91;100515.16;5039449;28;20488;-93
2022/08/08 03:28:09;;;;;;;28.45;8.18;;;;;;;24.15;65.53;100529.97;5039963;28;20025;-93
2022/08/08 03:30:34;;;;;;;16.42;8.48;;;;;;;24.09;65.91;100519.81;5040234;28;20434;-92
2022/08/08 03:33:18;;;;;;;22.02;10.00;;;;;;;24.05;65.91;100530.38;5039245;28;20025;-91
2022/08/08 03:35:48;;;;;;;20.17;7.55;;;;;;;24.12;65.71;100533.16;5021207;28;20407;-92
2022/08/08 03:38:14;;;;;;;10.02;6.93;;;;;;;24.07;65.69;100528.25;5039523;28;20037;-92
2022/08/08 03:40:39;;;;;;;20.75;7.63;;;;;;;24.09;65.84;100533.53;5039681;28;20462;-92
2022/08/08 03:43:11;;;;;;;28.63;8.77;;;;;;;24.08;65.66;100535.44;5021961;28;20087;-95
2022/08/08 03:45:37;;;;;;;;;;;;;;;24.05;65.67;100535.03;5040503;28;20407;-93
2022/08/08 03:48:08;;;;;;;14.40;7.50;;;;;;;24.06;65.97;100534.81;5040174;28;19915;-93
2022/08/08 03:55:48;;;;;;;15.32;7.05;;;;;;;23.99;65.81;100549.63;5731902;23;20061;-93
2022/08/08 03:58:19;;;;;;;10.82;6.32;;;;;;;23.99;66.07;100547.72;4999953;28;20501;-93
2022/08/08 04:00:53;;;;;;;15.85;7.38;;;;;;;23.99;65.86;100547.72;5006531;28;20022;-92
2022/08/08 04:03:18;;;;;;;23.13;7.07;;;;;;;23.97;65.94;100543.50;5019933;28;20454;-93
2022/08/08 04:05:45;;;;;;;38.28;9.40;;;;;;;23.98;66.27;100553.41;5020102;28;20037;-93
2022/08/08 04:08:23;;;;;;;11.65;6.35;;;;;;;23.93;66.25;100550.47;5019255;28;20026;-93
2022/08/08 04:10:51;;;;;;;16.52;7.43;;;;;;;23.95;66.14;100557.44;5018793;28;20025;-93
2022/08/08 04:13:19;;;;;;;23.52;7.43;;;;;;;23.89;66.10;100557.44;5018351;28;20022;-93
2022/08/08 04:15:45;;;;;;;10.18;6.65;;;;;;;23.90;66.11;100557.25;5018750;28;20514;-92
2022/08/08 04:18:11;;;;;;;10.50;6.40;;;;;;;23.88;66.20;100564.88;5018605;28;20025;-92
2022/08/08 04:20:36;;;;;;;25.85;7.50;;;;;;;23.85;66.16;100568.84;5020360;28;20112;-94
2022/08/08 04:23:03;;;;;;;23.58;7.18;;;;;;;23.88;66.05;100570.34;5019741;28;20053;-92
2022/08/08 04:25:29;;;;;;;15.73;7.07;;;;;;;23.89;66.30;100560.19;5019704;28;20085;-92
2022/08/08 04:27:54;;;;;;;22.83;6.22;;;;;;;23.84;65.83;100550.69;5018330;28;20510;-93
2022/08/08 04:30:20;;;;;;;13.18;6.75;;;;;;;23.88;66.12;100564.00;5018165;28;20080;-94
2022/08/08 04:32:46;;;;;;;17.75;6.35;;;;;;;23.87;65.97;100559.56;5018860;28;20506;-95
2022/08/08 04:35:12;;;;;;;21.67;6.65;;;;;;;23.89;66.20;100574.78;5021373;28;20096;-96
2022/08/08 04:37:37;;;;;;;28.30;7.00;;;;;;;23.85;65.82;100551.56;5003639;28;20084;-94
2022/08/08 04:40:03;;;;;;;24.63;6.15;;;;;;;23.74;65.94;100536.53;5001698;28;20483;-84
2022/08/08 04:42:32;;;;;;;11.80;6.50;;;;;;;23.94;66.14;100554.91;5012262;28;20026;-81
2022/08/08 04:44:58;;;;;;;17.30;6.40;;;;;;;23.95;65.71;100562.09;4996590;28;20061;-81
2022/08/08 04:47:24;;;;;;;8.82;6.35;;;;;;;23.91;65.61;100566.34;4988968;28;20049;-82
2022/08/08 04:49:49;;;;;;;19.35;6.25;;;;;;;23.97;65.63;100576.47;5015997;28;20400;-81
2022/08/08 04:52:15;;;;;;;15.50;6.38;;;;;;;24.00;65.55;100570.53;4976679;28;20030;-82
2022/08/08 04:54:40;;;;;;;15.77;6.50;;;;;;;24.00;65.51;100570.53;4977597;28;20031;-81
2022/08/08 04:57:06;;;;;;;16.13;5.35;;;;;;;24.08;64.53;100573.06;4976342;28;20129;-81
2022/08/08 04:59:31;;;;;;;22.27;6.65;;;;;;;24.13;64.37;100570.53;4977003;28;20061;-82
2022/08/08 05:01:57;;;;;;;53.70;9.60;;;;;;;24.17;64.26;100569.06;4976579;28;20019;-82
2022/08/08 05:04:22;;;;;;;17.50;6.30;;;;;;;24.17;64.02;100567.16;5000148;28;20029;-91
2022/08/08 05:06:48;;;;;;;17.25;6.45;;;;;;;24.25;63.84;100585.31;5016905;28;20396;-81
2022/08/08 05:09:14;;;;;;;16.50;5.85;;;;;;;24.31;63.32;100579.00;5016213;28;20049;-89
2022/08/08 05:11:39;;;;;;;25.15;6.93;;;;;;;24.33;63.21;100582.34;4986215;28;20038;-81
2022/08/08 05:14:06;;;;;;;17.83;6.53;;;;;;;24.50;62.60;100582.72;5011248;28;20030;-83
2022/08/08 05:16:31;;;;;;;10.57;5.25;;;;;;;24.58;62.32;100585.25;5015428;28;20025;-83
2022/08/08 05:18:57;;;;;;;22.67;6.32;;;;;;;24.52;62.13;100569.63;5005650;28;20422;-81
2022/08/08 05:21:23;;;;;;;13.70;6.10;;;;;;;24.66;61.70;100572.09;5014905;28;20049;-84
2022/08/08 05:23:48;;;;;;;19.40;7.03;;;;;;;24.64;61.80;100584.38;5015597;28;20084;-83
2022/08/08 05:26:14;;;;;;;12.27;5.53;;;;;;;24.73;61.68;100583.91;5015673;28;20025;-84
2022/08/08 05:28:39;;;;;;;17.17;6.07;;;;;;;24.83;61.43;100580.75;5014371;28;20116;-85
2022/08/08 05:31:05;;;;;;;11.05;4.95;;;;;;;24.86;61.36;100589.38;5015275;28;20030;-83
2022/08/08 05:33:30;;;;;;;15.80;6.55;;;;;;;24.99;61.00;100593.13;5015243;28;20105;-84
2022/08/08 05:36:00;;;;;;;9.00;5.72;;;;;;;24.95;61.11;100581.75;4997363;28;20018;-84
2022/08/08 05:38:28;;;;;;;20.35;6.70;;;;;;;25.02;61.08;100599.03;5015706;28;20033;-85
2022/08/08 05:40:55;;;;;;;9.80;5.60;;;;;;;25.10;60.70;100600.72;5015331;28;20069;-84
2022/08/08 05:43:29;;;;;;;9.43;5.47;;;;;;;25.16;60.40;100600.69;5015585;28;20025;-85
2022/08/08 05:46:01;;;;;;;9.13;5.05;;;;;;;25.26;60.12;100606.53;5015349;28;20061;-85
2022/08/08 05:48:27;;;;;;;15.80;6.10;;;;;;;25.25;60.08;100593.00;5014971;28;20022;-84
2022/08/08 05:50:52;;;;;;;8.15;5.38;;;;;;;25.34;59.50;100597.19;4997207;28;20385;-85
2022/08/08 05:53:26;;;;;;;13.75;6.70;;;;;;;25.42;59.42;100600.50;5015405;28;20026;-84
2022/08/08 05:55:59;;;;;;;13.40;7.35;;;;;;;25.51;59.64;100620.38;5014660;28;20050;-86
2022/08/08 05:58:30;;;;;;;16.70;7.13;;;;;;;25.66;58.79;100623.66;4997325;28;20025;-84
2022/08/08 06:00:58;;;;;;;12.95;4.78;;;;;;;25.71;58.57;100621.09;5014809;28;20052;-85
2022/08/08 06:03:25;;;;;;;13.57;5.53;;;;;;;25.76;58.32;100624.03;5014648;28;20096;-83
2022/08/08 06:05:54;;;;;;;7.60;4.78;;;;;;;25.90;57.85;100622.84;5014592;28;20021;-84
2022/08/08 06:08:28;;;;;;;9.60;5.10;;;;;;;25.97;57.83;100640.16;5014331;28;20053;-83
2022/08/08 06:10:56;;;;;;;9.90;4.80;;;;;;;25.98;57.41;100628.09;5014673;28;20404;-84
2022/08/08 06:13:23;;;;;;;11.50;5.25;;;;;;;26.21;56.94;100634.91;4996582;28;20104;-83
2022/08/08 06:15:53;;;;;;;14.30;5.40;;;;;;;26.33;56.92;100642.19;5014880;28;20026;-83
2022/08/08 06:18:20;;;;;;;15.57;6.88;;;;;;;26.27;56.59;100623.81;5014124;28;20021;-83
2022/08/08 06:20:46;;;;;;;13.13;6.22;;;;;;;26.47;56.33;100648.44;4996430;28;20455;-84
2022/08/08 06:23:12;;;;;;;15.38;5.50;;;;;;;26.60;56.01;100639.19;5016804;28;20080;-85
2022/08/08 06:25:41;;;;;;;9.32;5.22;;;;;;;26.63;55.93;100639.56;4996286;28;20038;-84
2022/08/08 06:28:22;;;;;;;11.40;5.38;;;;;;;26.77;55.26;100631.97;4996381;28;20018;-85
2022/08/08 06:30:51;;;;;;;12.10;5.25;;;;;;;26.88;54.62;100621.03;5015503;28;20028;-87
2022/08/08 06:33:24;;;;;;;15.60;4.97;;;;;;;27.09;53.84;100654.78;5016291;28;20018;-85
2022/08/08 06:35:50;;;;;;;13.35;5.20;;;;;;;27.11;53.72;100639.66;5014148;28;20471;-85
2022/08/08 06:38:18;;;;;;;19.70;5.32;;;;;;;27.30;53.16;100640.47;5014346;28;20036;-85
2022/08/08 06:40:49;;;;;;;10.18;4.45;;;;;;;27.48;52.48;100648.72;5014093;28;20026;-85
2022/08/08 06:43:19;;;;;;;12.60;4.93;;;;;;;27.60;51.67;100644.09;5014291;28;20472;-85
2022/08/08 06:45:45;;;;;;;9.75;4.53;;;;;;;27.64;51.13;100628.72;4996462;28;20045;-85
2022/08/08 06:48:10;;;;;;;20.70;4.88;;;;;;;27.86;50.65;100648.34;5014571;28;20018;-85
2022/08/08 06:50:36;;;;;;;17.35;4.35;;;;;;;28.02;50.12;100645.75;5015497;28;20408;-85
2022/08/08 06:53:03;;;;;;;10.60;4.75;;;;;;;28.15;49.65;100643.88;5016102;28;20026;-84
2022/08/08 06:55:29;;;;;;;10.85;4.53;;;;;;;28.18;49.01;100640.63;5015054;28;20516;-83
2022/08/08 06:57:55;;;;;;;13.45;4.43;;;;;;;28.23;47.75;100635.19;5013493;28;20041;-86
2022/08/08 07:00:21;;;;;;;18.70;4.90;;;;;;;28.46;47.11;100655.44;4996494;28;20030;-85
2022/08/08 07:02:57;;;;;;;24.92;4.60;;;;;;;28.61;46.12;100661.31;5014100;28;20033;-85
2022/08/08 07:05:24;;;;;;;15.95;6.05;;;;;;;28.62;46.09;100653.84;5013010;28;20550;-85
2022/08/08 07:07:59;;;;;;;18.35;6.75;;;;;;;28.72;46.70;100665.16;5013753;28;20036;-84
2022/08/08 07:10:31;;;;;;;15.98;5.65;;;;;;;28.76;47.40;100643.38;5014128;28;20451;-84
2022/08/08 07:13:08;;;;;;;9.73;4.60;;;;;;;28.90;47.20;100640.09;5013993;28;20041;-86
2022/08/08 07:15:42;;;;;;;13.43;8.63;;;;;;;28.98;47.05;100636.97;5014041;28;20109;-83
2022/08/08 07:18:09;;;;;;;18.45;5.15;;;;;;;29.11;46.43;100642.19;5014410;28;20526;-85
2022/08/08 07:20:41;;;;;;;11.57;4.72;;;;;;;29.25;46.08;100653.03;5014270;28;20028;-86
2022/08/08 07:23:30;;;;;;;11.18;4.18;;;;;;;29.36;45.27;100643.84;5014179;28;20032;-85
2022/08/08 07:26:01;;;;;;;49.58;6.18;;;;;;;29.50;45.16;100645.22;5014637;28;20404;-85
2022/08/08 07:28:28;;;;;;;17.00;4.60;;;;;;;29.60;41.92;100645.44;5013582;28;20026;-84
2022/08/08 07:30:54;;;;;;;19.05;4.30;;;;;;;29.75;41.44;100650.41;5014164;28;20028;-85
2022/08/08 07:33:22;;;;;;;18.45;4.32;;;;;;;29.84;42.13;100652.56;5014048;28;20089;-85
2022/08/08 07:35:48;;;;;;;18.70;5.82;;;;;;;29.97;42.46;100652.22;5014307;28;20097;-84
2022/08/08 07:38:16;;;;;;;21.33;4.38;;;;;;;30.05;42.78;100653.75;5013661;28;20110;-85
2022/08/08 07:40:44;;;;;;;21.00;5.20;;;;;;;30.21;43.21;100662.03;5013603;28;20065;-84
2022/08/08 07:43:10;;;;;;;12.10;4.93;;;;;;;30.35;43.36;100664.50;5014251;28;20076;-84
2022/08/08 07:45:37;;;;;;;12.88;4.68;;;;;;;30.48;42.51;100659.47;5017014;28;20082;-85
2022/08/08 07:48:03;;;;;;;19.83;4.82;;;;;;;30.53;42.61;100650.38;5017385;28;20037;-84
2022/08/08 07:50:29;;;;;;;14.02;4.88;;;;;;;30.68;41.07;100656.13;5017022;28;20025;-85
2022/08/08 07:53:18;;;;;;;8.98;3.20;;;;;;;30.80;38.98;100656.84;5016797;28;20167;-85
2022/08/08 07:55:46;;;;;;;14.88;3.38;;;;;;;30.83;38.45;100638.84;5016804;28;20050;-85
2022/08/08 07:58:20;;;;;;;11.13;3.40;;;;;;;31.05;36.93;100661.94;4999873;28;20022;-85
2022/08/08 08:00:50;;;;;;;7.35;3.20;;;;;;;31.11;36.21;100645.09;4999841;28;20492;-84
2022/08/08 08:03:32;;;;;;;10.13;3.22;;;;;;;31.08;35.69;100653.94;5017120;28;20110;-84
2022/08/08 08:05:59;;;;;;;6.18;3.10;;;;;;;31.09;35.66;100658.41;5017950;28;20033;-85
2022/08/08 08:08:31;;;;;;;9.10;3.13;;;;;;;31.14;34.93;100644.56;5018247;28;20101;-85
2022/08/08 08:10:57;;;;;;;10.65;3.03;;;;;;;31.29;36.17;100647.53;5017488;28;20451;-86
2022/08/08 08:13:26;;;;;;;16.25;3.50;;;;;;;31.33;35.07;100658.97;5017029;28;20318;-86
2022/08/08 08:16:03;;;;;;;9.13;2.80;;;;;;;31.39;35.26;100654.28;5017553;28;20491;-85
2022/08/08 08:18:46;;;;;;;40.72;4.38;;;;;;;31.50;35.27;100668.06;5017188;28;20108;-84
2022/08/08 08:21:15;;;;;;;17.92;3.45;;;;;;;31.57;35.40;100654.81;5017362;28;20032;-84
2022/08/08 08:23:41;;;;;;;9.48;4.00;;;;;;;31.60;35.52;100640.38;5017065;28;20018;-85
2022/08/08 08:26:06;;;;;;;20.70;3.78;;;;;;;31.75;35.76;100642.47;5016942;28;20388;-83
2022/08/08 08:28:32;;;;;;;23.25;4.57;;;;;;;31.95;35.27;100664.94;4999311;28;20033;-83
2022/08/08 08:31:03;;;;;;;10.32;3.72;;;;;;;31.89;35.37;100643.72;5016740;28;20030;-85
2022/08/08 08:33:29;;;;;;;10.23;3.65;;;;;;;32.08;36.06;100656.16;5017186;28;20042;-83
2022/08/08 08:35:55;;;;;;;16.00;3.53;;;;;;;32.04;34.99;100646.69;5016874;28;20033;-84
2022/08/08 08:38:20;;;;;;;15.02;3.60;;;;;;;32.19;34.83;100657.09;5017365;28;20554;-86
2022/08/08 08:40:46;;;;;;;8.75;4.15;;;;;;;32.28;34.33;100647.97;5017281;28;20544;-86
2022/08/08 08:43:13;;;;;;;12.93;5.07;;;;;;;32.22;34.26;100646.28;5016680;28;20026;-84
2022/08/08 08:45:38;;;;;;;9.52;3.30;;;;;;;32.21;34.94;100625.09;5016416;28;20190;-84
2022/08/08 08:48:05;;;;;;;10.50;3.60;;;;;;;32.40;35.00;100641.38;5016570;28;20021;-85
2022/08/08 08:50:32;;;;;;;19.65;3.90;;;;;;;32.53;34.56;100640.91;5016391;28;20052;-85
2022/08/08 08:53:01;;;;;;;8.05;4.47;;;;;;;32.64;33.80;100634.31;5016776;28;20026;-86
2022/08/08 08:55:29;;;;;;;13.23;4.38;;;;;;;32.76;33.73;100633.00;5015524;28;20427;-84
2022/08/08 08:57:57;;;;;;;10.07;3.75;;;;;;;32.88;33.79;100646.69;5017261;28;20037;-86
2022/08/08 09:00:23;;;;;;;29.90;4.95;;;;;;;32.92;33.64;100636.69;5018456;28;20033;-84
2022/08/08 09:02:50;;;;;;;13.75;4.13;;;;;;;32.99;33.39;100631.72;5000302;28;20022;-85
2022/08/08 09:05:17;;;;;;;23.52;3.88;;;;;;;33.11;33.30;100639.88;5016046;28;20025;-86
2022/08/08 09:07:45;;;;;;;13.52;3.72;;;;;;;33.17;32.66;100638.78;5016263;28;20026;-85
2022/08/08 09:10:14;;;;;;;21.02;3.15;;;;;;;33.27;32.09;100639.63;5016672;28;20711;-86
2022/08/08 09:12:44;;;;;;;24.65;4.25;;;;;;;33.30;32.13;100633.50;5017250;28;20025;-85
2022/08/08 09:15:09;;;;;;;12.85;3.22;;;;;;;33.19;30.91;100631.81;4998316;28;20095;-86
2022/08/08 09:17:35;;;;;;;18.80;3.38;;;;;;;33.02;30.17;100624.75;5016318;28;20116;-85
2022/08/08 09:20:02;;;;;;;28.67;4.90;;;;;;;33.17;30.83;100642.41;5016169;28;20551;-86
2022/08/08 09:22:27;;;;;;;6.95;3.17;;;;;;;33.17;30.98;100631.25;5016014;28;20030;-84
2022/08/08 09:24:54;;;;;;;16.80;4.63;;;;;;;33.21;31.94;100618.44;5015613;28;20404;-85
2022/08/08 09:27:20;;;;;;;13.70;3.53;;;;;;;33.34;31.21;100623.50;4997790;28;20037;-85
2022/08/08 09:30:03;;;;;;;26.52;5.55;;;;;;;33.27;31.13;100625.69;5015594;28;20030;-83
2022/08/08 09:32:51;;;;;;;7.13;3.80;;;;;;;33.38;31.15;100629.38;5015899;28;20025;-84
2022/08/08 09:35:19;;;;;;;47.35;4.90;;;;;;;33.28;31.25;100624.59;5015603;28;20425;-84
2022/08/08 09:37:48;;;;;;;8.35;3.20;;;;;;;33.40;31.18;100615.97;5015378;28;20028;-85
2022/08/08 09:40:18;;;;;;;14.88;4.13;;;;;;;33.59;30.21;100624.66;5015696;28;20112;-85
2022/08/08 09:42:47;;;;;;;12.70;5.22;;;;;;;33.67;29.72;100615.78;5016213;28;20025;-85
2022/08/08 09:45:31;;;;;;;31.63;3.40;;;;;;;33.67;28.06;100618.59;5015362;28;20098;-84
2022/08/08 09:48:01;;;;;;;12.70;3.92;;;;;;;33.76;29.17;100611.34;4997948;28;20029;-84
2022/08/08 09:50:29;;;;;;;20.50;5.00;;;;;;;33.78;30.27;100612.72;5014806;28;20034;-87
2022/08/08 09:52:56;;;;;;;19.50;3.63;;;;;;;33.88;29.34;100612.72;5015564;28;20061;-85
2022/08/08 09:55:24;;;;;;;23.92;4.68;;;;;;;33.99;30.01;100618.31;4998029;28;20582;-86
2022/08/08 09:58:04;;;;;;;19.70;4.57;;;;;;;34.10;31.86;100615.25;4997912;28;20033;-85
2022/08/08 10:00:31;;;;;;;16.92;4.53;;;;;;;34.31;31.51;100625.28;5015318;28;20022;-84
2022/08/08 10:02:56;;;;;;;23.42;3.60;;;;;;;34.40;30.69;100629.19;5015771;28;20038;-84
2022/08/08 10:05:26;;;;;;;14.60;3.70;;;;;;;34.37;30.59;100626.13;5015307;28;20014;-84
2022/08/08 10:07:52;;;;;;;16.35;3.15;;;;;;;34.33;30.88;100617.47;4997298;28;20021;-85
2022/08/08 10:10:42;;;;;;;21.13;3.42;;;;;;;34.25;30.51;100617.22;5015204;28;20101;-85
2022/08/08 10:13:19;;;;;;;15.75;3.70;;;;;;;34.39;30.21;100623.88;5014452;28;20084;-84
2022/08/08 10:15:55;;;;;;;13.38;3.58;;;;;;;34.45;30.14;100629.19;5014944;28;20037;-83
2022/08/08 10:18:32;;;;;;;11.75;3.42;;;;;;;34.45;30.33;100622.75;5014433;28;20108;-85
2022/08/08 10:21:09;;;;;;;21.67;3.80;;;;;;;34.36;30.50;100625.28;5014496;28;20060;-83
2022/08/08 10:23:37;;;;;;;21.00;3.65;;;;;;;34.31;30.18;100619.69;5015175;28;20076;-85
2022/08/08 10:26:03;;;;;;;16.77;3.97;;;;;;;34.35;30.13;100601.25;4996685;28;20092;-83
2022/08/08 10:28:32;;;;;;;37.33;5.25;;;;;;;34.58;29.15;100621.34;5013024;28;20037;-83
2022/08/08 10:32:30;;;;;;;10.90;2.83;;;;;;;34.61;28.18;100610.47;5014549;28;20030;-85
2022/08/08 10:33:46;;;;;;;8.65;2.55;;;;;;;34.62;27.87;100606.53;5014315;28;20038;-85
2022/08/08 10:36:14;;;;;;;7.55;2.47;;;;;;;34.78;27.34;100610.13;5014523;28;20028;-86
2022/08/08 10:38:41;;;;;;;11.15;2.70;;;;;;;34.85;26.82;100613.44;5014869;28;20034;-85
2022/08/08 10:41:16;;;;;;;11.32;3.15;;;;;;;34.87;26.76;100614.84;5014220;28;20472;-84
2022/08/08 10:43:42;;;;;;;10.90;3.30;;;;;;;34.83;26.77;100607.31;5013918;28;20153;-85
2022/08/08 10:46:24;;;;;;;11.73;3.05;;;;;;;34.76;27.04;100595.59;5014950;28;20033;-86
2022/08/08 10:48:51;;;;;;;;;;;;;;;34.91;27.80;100615.09;5015189;28;20034;-85
2022/08/08 10:51:16;;;;;;;6.95;2.92;;;;;;;34.83;26.89;100591.34;5014090;28;20004;-86
2022/08/08 10:53:46;;;;;;;18.70;3.25;;;;;;;34.79;26.81;100589.44;5014250;28;20026;-85
2022/08/08 10:56:11;;;;;;;14.60;3.58;;;;;;;34.95;27.15;100596.66;5013776;28;20054;-87
2022/08/08 10:58:37;;;;;;;11.50;2.80;;;;;;;35.08;27.10;100603.53;5013069;28;20166;-85
2022/08/08 11:01:08;;;;;;;13.80;3.85;;;;;;;35.21;26.30;100592.63;5012888;28;20045;-85
2022/08/08 11:03:44;;;;;;;11.32;3.63;;;;;;;35.13;26.58;100579.25;5012934;28;20029;-86
2022/08/08 11:06:10;;;;;;;7.97;3.10;;;;;;;35.22;26.90;100585.06;5012738;28;20555;-86
2022/08/08 11:08:37;;;;;;;13.55;3.20;;;;;;;35.20;27.15;100596.53;4995630;28;20535;-85
2022/08/08 11:11:10;;;;;;;7.95;3.17;;;;;;;35.32;27.00;100580.22;4995657;28;20025;-85
2022/08/08 11:13:39;;;;;;;5.03;2.28;;;;;;;35.38;26.41;100586.66;5013237;28;20030;-86
2022/08/08 11:16:12;;;;;;;11.20;3.00;;;;;;;35.29;26.27;100566.81;4995106;28;20118;-84
2022/08/08 11:18:38;;;;;;;16.23;3.22;;;;;;;35.32;25.88;100585.81;5013822;28;20572;-85
2022/08/08 11:21:06;;;;;;;9.07;2.83;;;;;;;35.20;26.58;100590.94;5016691;28;20048;-85
2022/08/08 11:23:33;;;;;;;10.88;3.17;;;;;;;35.33;26.25;100589.47;5017454;28;20037;-83
2022/08/08 11:26:04;;;;;;;5.75;2.70;;;;;;;35.40;26.66;100579.63;5016751;28;20107;-83
2022/08/08 11:28:33;;;;;;;17.67;3.85;;;;;;;35.38;25.87;100581.06;5017460;28;20056;-84
2022/08/08 11:31:01;;;;;;;13.68;3.67;;;;;;;35.44;26.07;100575.09;5017621;28;20033;-84
2022/08/08 11:33:29;;;;;;;16.25;3.30;;;;;;;35.42;26.54;100576.53;5016497;28;20026;-81
2022/08/08 11:35:55;;;;;;;6.78;3.15;;;;;;;35.48;26.02;100584.59;5017480;28;20026;-87
2022/08/08 11:38:26;;;;;;;25.13;3.10;;;;;;;35.38;26.36;100573.47;5018904;28;20032;-84
2022/08/08 11:40:53;;;;;;;15.73;3.17;;;;;;;35.37;26.81;100571.81;5018914;28;20036;-85
2022/08/08 11:43:21;;;;;;;10.60;3.00;;;;;;;35.38;26.72;100575.47;5017652;28;20022;-86
2022/08/08 11:45:49;;;;;;;14.95;3.17;;;;;;;35.42;26.11;100574.56;4999533;28;20022;-85
2022/08/08 11:48:15;;;;;;;14.93;3.00;;;;;;;35.47;25.64;100577.31;5016334;28;20021;-82
2022/08/08 11:50:43;;;;;;;10.07;3.45;;;;;;;35.40;25.68;100573.19;5015477;28;20052;-83
2022/08/08 11:53:09;;;;;;;7.38;2.95;;;;;;;35.36;26.50;100572.94;5016358;28;20030;-83
2022/08/08 11:55:47;;;;;;;9.25;3.10;;;;;;;35.58;26.26;100557.69;4957475;28;1194451;-84
2022/08/08 11:58:13;;;;;;;7.53;3.10;;;;;;;35.75;26.12;100574.94;5017769;28;20092;-84